Home Place, Louisiana
Current Conditions -  °F | °C
As of 8:45 AM on Wednesday 22 Oct 2014 (Local Time) from K1B7 Reporting Station
Clear Clear  
Wind Chill: 73°   Ceiling: Unl
Heat Index: 73°   Visibility: 10mi
Dew Point: 64°   Wind: 18mph
Humidity: 73%   Direction: 60°ENE
Pressure: 30.06"   Gusts: NA
Location:  29.4927°N, 89.8165°W
Report Text: K1B7 221345Z 06016KT 10SM SKC 23/18 A3006
Loading
Personal Weather Stations






























Interactive Weather Map
Tropical Storm Tracking
New forecast layout! Learn more

10-Day Weather Forecast

Advertisements
Track Severe Weather on mobile